createdAt,value
2023-08-01T00:01:52.926Z,13.2
2023-08-01T00:06:53.638Z,13.2
2023-08-01T00:09:54.243Z,13.1
2023-08-01T00:12:54.885Z,13.1
2023-08-01T00:14:55.489Z,13.1
2023-08-01T00:17:56.138Z,13.1
2023-08-01T00:19:56.788Z,13.2
2023-08-01T00:22:57.401Z,13.2
2023-08-01T00:24:57.972Z,13.2
2023-08-01T00:27:58.580Z,13.1
2023-08-01T00:29:59.245Z,13.2
2023-08-01T00:32:59.857Z,13.2
2023-08-01T00:35:00.631Z,13.2
2023-08-01T00:38:01.226Z,13.2
2023-08-01T00:40:01.823Z,13.2
2023-08-01T00:43:02.667Z,13.2
2023-08-01T00:48:03.315Z,13.2
2023-08-01T00:50:04.099Z,13.2
2023-08-01T00:53:04.762Z,13.2
2023-08-01T00:55:05.399Z,13.2
2023-08-01T00:58:06.048Z,13.2
2023-08-01T01:01:06.689Z,13.2
2023-08-01T01:03:07.614Z,13.2
2023-08-01T01:06:08.642Z,13.2
2023-08-01T01:08:09.268Z,13.2
2023-08-01T01:11:09.870Z,13.2
2023-08-01T01:13:10.500Z,13.3
2023-08-01T01:16:11.093Z,13.2
2023-08-01T01:18:11.767Z,13.2
2023-08-01T01:21:12.339Z,13.2
2023-08-01T01:23:12.968Z,13.2
2023-08-01T01:28:13.637Z,13.2
2023-08-01T01:31:14.388Z,13.2
2023-08-01T01:34:15.109Z,13.3
2023-08-01T01:36:15.703Z,13.3
2023-08-01T01:39:16.309Z,13.3
2023-08-01T01:41:16.885Z,13.3
2023-08-01T01:44:17.495Z,13.4
2023-08-01T01:46:18.108Z,13.4
2023-08-01T01:49:18.773Z,13.4
2023-08-01T01:51:19.337Z,13.4
2023-08-01T01:54:19.948Z,13.4
2023-08-01T01:56:20.529Z,13.4
2023-08-01T01:59:21.312Z,13.4
2023-08-01T02:01:21.963Z,13.4
2023-08-01T02:04:22.595Z,13.4
2023-08-01T02:09:23.235Z,13.4
2023-08-01T02:12:23.822Z,13.4
2023-08-01T02:14:24.439Z,13.4
2023-08-01T02:17:25.054Z,13.4
2023-08-01T02:19:25.763Z,13.4
2023-08-01T02:22:26.384Z,13.4
2023-08-01T02:24:27.003Z,13.3
2023-08-01T02:27:27.574Z,13.3
2023-08-01T02:29:28.166Z,13.3
2023-08-01T02:32:30.341Z,13.3
2023-08-01T02:34:32.318Z,13.3
2023-08-01T02:37:33.046Z,13.3
2023-08-01T02:39:33.665Z,13.2
2023-08-01T02:42:34.335Z,13.3
2023-08-01T02:44:34.939Z,13.3
2023-08-01T02:49:35.540Z,13.3
2023-08-01T02:52:36.126Z,13.3
2023-08-01T02:54:36.729Z,13.3
2023-08-01T02:57:37.294Z,13.4
2023-08-01T03:00:37.940Z,13.3
2023-08-01T03:02:38.588Z,13.3
2023-08-01T03:05:39.447Z,13.3
2023-08-01T03:07:40.049Z,13.3
2023-08-01T03:10:40.670Z,13.3
2023-08-01T03:12:41.281Z,13.3
2023-08-01T03:15:41.972Z,13.4
2023-08-01T03:17:42.758Z,13.4
2023-08-01T03:20:43.483Z,13.4
2023-08-01T03:22:44.413Z,13.3
2023-08-01T03:25:45.004Z,13.2
2023-08-01T03:30:45.590Z,13.2
2023-08-01T03:33:46.185Z,13.2
2023-08-01T03:35:46.833Z,13.2
2023-08-01T03:38:47.415Z,13.2
2023-08-01T03:40:48.085Z,13.2
2023-08-01T03:43:48.712Z,13.2
2023-08-01T03:45:49.334Z,13.2
2023-08-01T03:48:50.068Z,13.2
2023-08-01T03:50:50.672Z,13.1
2023-08-01T03:53:59.859Z,13.1
2023-08-01T03:56:14.839Z,13.1
2023-08-01T03:58:15.407Z,13.1
2023-08-01T04:01:16.046Z,13.1
2023-08-01T04:03:17.387Z,13.1
2023-08-01T04:06:18.238Z,13.1
2023-08-01T04:11:18.875Z,13.2
2023-08-01T04:14:19.460Z,13.2
2023-08-01T04:16:20.082Z,13.1
2023-08-01T04:19:20.803Z,13.2
2023-08-01T04:21:21.401Z,13.2
2023-08-01T04:24:22.003Z,13.1
2023-08-01T04:26:22.622Z,13.2
2023-08-01T04:29:23.215Z,13.2
2023-08-01T04:31:23.867Z,13.1
2023-08-01T04:34:24.635Z,13.1
2023-08-01T04:36:25.222Z,13.1
2023-08-01T04:39:25.804Z,13.1
2023-08-01T04:41:26.419Z,13.1
2023-08-01T04:44:27.016Z,13.1
2023-08-01T04:47:27.632Z,13.0
2023-08-01T04:52:28.401Z,13.0
2023-08-01T04:54:29.010Z,13.0
2023-08-01T04:57:29.620Z,13.0
2023-08-01T04:59:30.210Z,13.0
2023-08-01T05:02:30.937Z,13.0
2023-08-01T05:04:31.661Z,13.0
2023-08-01T05:07:32.289Z,13.0
2023-08-01T05:09:32.896Z,13.0
2023-08-01T05:12:33.579Z,13.1
2023-08-01T05:14:34.143Z,13.1
2023-08-01T05:17:34.759Z,13.1
2023-08-01T05:19:35.479Z,13.1
2023-08-01T05:22:36.072Z,13.1
2023-08-01T05:24:36.667Z,13.2
2023-08-01T05:27:37.319Z,13.2
2023-08-01T05:32:37.961Z,13.2
2023-08-01T05:34:38.830Z,13.2
2023-08-01T05:37:39.415Z,13.3
2023-08-01T05:40:39.982Z,13.4
2023-08-01T05:42:40.623Z,13.4
2023-08-01T05:45:41.213Z,13.4
2023-08-01T05:47:41.885Z,13.4
2023-08-01T05:50:42.617Z,13.4
2023-08-01T05:52:43.239Z,13.5
2023-08-01T05:55:43.833Z,13.5
2023-08-01T05:57:44.456Z,13.5
2023-08-01T06:00:45.033Z,13.5
2023-08-01T06:02:45.775Z,13.6
2023-08-01T06:05:47.266Z,13.6
2023-08-01T06:07:47.858Z,13.5
2023-08-01T06:13:48.455Z,13.6
2023-08-01T06:15:49.084Z,13.6
2023-08-01T06:18:49.910Z,13.6
2023-08-01T06:20:50.488Z,13.6
2023-08-01T06:23:51.096Z,13.6
2023-08-01T06:25:51.684Z,13.6
2023-08-01T06:28:52.302Z,13.6
2023-08-01T06:30:52.877Z,13.6
2023-08-01T06:33:53.479Z,13.6
2023-08-01T06:35:54.069Z,13.6
2023-08-01T06:38:54.662Z,13.7
2023-08-01T06:40:55.295Z,13.7
2023-08-01T06:43:55.899Z,13.7
2023-08-01T06:46:56.535Z,13.7
2023-08-01T06:48:57.178Z,13.8
2023-08-01T06:53:57.805Z,13.8
2023-08-01T06:56:58.756Z,13.9
2023-08-01T06:58:59.391Z,14.0
2023-08-01T07:02:00.003Z,14.0
2023-08-01T07:04:00.837Z,14.0
2023-08-01T07:07:01.495Z,14.1
2023-08-01T07:09:02.084Z,14.2
2023-08-01T07:12:02.648Z,14.4
2023-08-01T07:14:03.272Z,14.4
2023-08-01T07:17:03.901Z,14.5
2023-08-01T07:19:04.488Z,14.6
2023-08-01T07:22:05.126Z,14.6
2023-08-01T07:24:05.738Z,14.7
2023-08-01T07:27:06.315Z,14.7
2023-08-01T07:29:06.935Z,14.7
2023-08-01T07:35:07.534Z,14.9
2023-08-01T07:37:08.117Z,15.1
2023-08-01T07:40:08.697Z,15.2
2023-08-01T07:42:09.356Z,15.2
2023-08-01T07:45:10.013Z,15.1
2023-08-01T07:47:10.577Z,15.0
2023-08-01T07:50:11.216Z,15.0
2023-08-01T07:52:12.333Z,15.0
2023-08-01T07:55:13.245Z,14.9
2023-08-01T07:57:13.969Z,14.8
2023-08-01T08:00:14.573Z,14.7
2023-08-01T08:02:15.167Z,14.8
2023-08-01T08:05:15.770Z,14.7
2023-08-01T08:07:16.377Z,14.8
2023-08-01T08:10:17.003Z,14.6
2023-08-01T08:15:17.640Z,14.7
2023-08-01T08:18:20.360Z,14.8
2023-08-01T08:20:21.140Z,14.6
2023-08-01T08:23:21.725Z,14.7
2023-08-01T08:25:22.315Z,14.7
2023-08-01T08:28:22.942Z,14.7
2023-08-01T08:30:23.722Z,14.6
2023-08-01T08:33:24.507Z,14.4
2023-08-01T08:35:25.113Z,14.4
2023-08-01T08:38:25.715Z,14.5
2023-08-01T08:40:26.296Z,14.3
2023-08-01T08:43:26.866Z,14.4
2023-08-01T08:45:27.458Z,14.4
2023-08-01T08:48:28.054Z,14.3
2023-08-01T08:50:30.381Z,14.2
2023-08-01T08:55:31.204Z,14.1
2023-08-01T08:58:31.771Z,14.0
2023-08-01T09:00:32.358Z,14.0
2023-08-01T09:03:32.940Z,14.0
2023-08-01T09:06:33.555Z,13.9
2023-08-01T09:08:34.143Z,13.9
2023-08-01T09:11:34.776Z,13.8
2023-08-01T09:13:35.373Z,13.7
2023-08-01T09:16:36.033Z,13.6
2023-08-01T09:18:36.789Z,13.5
2023-08-01T09:21:37.420Z,13.4
2023-08-01T09:23:37.997Z,13.6
2023-08-01T09:26:38.976Z,13.6
2023-08-01T09:28:40.690Z,13.7
2023-08-01T09:31:41.412Z,13.8
2023-08-01T09:36:42.204Z,13.9
2023-08-01T09:39:43.567Z,13.9
2023-08-01T09:41:44.143Z,13.8
2023-08-01T09:44:44.760Z,13.8
2023-08-01T09:46:45.447Z,13.8
2023-08-01T09:49:46.132Z,13.7
2023-08-01T09:51:46.704Z,13.8
2023-08-01T09:54:47.645Z,13.8
2023-08-01T09:56:48.328Z,13.7
2023-08-01T09:59:48.894Z,13.8
2023-08-01T10:01:49.525Z,13.7
2023-08-01T10:04:50.281Z,13.7
2023-08-01T10:06:50.866Z,13.7
2023-08-01T10:09:53.144Z,13.7
2023-08-01T10:11:56.104Z,13.7
2023-08-01T10:16:56.803Z,13.7
2023-08-01T10:19:57.520Z,13.8
2023-08-01T10:21:58.266Z,13.8
2023-08-01T10:24:58.883Z,14.0
2023-08-01T10:26:59.482Z,14.0
2023-08-01T10:30:00.060Z,14.1
2023-08-01T10:33:00.813Z,14.0
2023-08-01T10:35:01.705Z,14.2
2023-08-01T10:38:02.303Z,14.1
2023-08-01T10:40:02.846Z,14.3
2023-08-01T10:43:03.450Z,14.3
2023-08-01T10:45:04.026Z,14.2
2023-08-01T10:48:04.674Z,14.1
2023-08-01T10:50:05.420Z,14.0
2023-08-01T10:53:06.033Z,14.0
2023-08-01T10:58:06.699Z,14.0
2023-08-01T11:00:07.820Z,13.8
2023-08-01T11:03:08.507Z,13.8
2023-08-01T11:05:09.425Z,13.8
2023-08-01T11:08:10.042Z,13.8
2023-08-01T11:11:10.985Z,13.8
2023-08-01T11:13:16.405Z,13.8
2023-08-01T11:15:17.037Z,13.7
2023-08-01T11:18:17.666Z,13.6
2023-08-01T11:21:18.255Z,13.6
2023-08-01T11:23:18.852Z,13.8
2023-08-01T11:28:19.457Z,13.6
2023-08-01T11:31:20.319Z,13.7
2023-08-01T11:33:21.074Z,13.7
2023-08-01T11:38:21.795Z,13.6
2023-08-01T11:41:22.391Z,13.4
2023-08-01T11:43:22.993Z,13.1
2023-08-01T11:46:23.584Z,12.9
2023-08-01T11:48:24.187Z,12.9
2023-08-01T11:51:25.349Z,12.9
2023-08-01T11:54:28.012Z,12.8
2023-08-01T11:56:28.607Z,12.9
2023-08-01T11:59:29.264Z,13.0
2023-08-01T12:01:30.344Z,13.0
2023-08-01T12:04:31.259Z,13.0
2023-08-01T12:06:31.860Z,13.0
2023-08-01T12:09:32.457Z,13.0
2023-08-01T12:11:33.318Z,13.1
2023-08-01T12:14:33.922Z,13.2
2023-08-01T12:19:34.720Z,13.6
2023-08-01T12:21:35.339Z,13.7
2023-08-01T12:24:35.964Z,13.9
2023-08-01T12:26:36.846Z,14.1
2023-08-01T12:29:37.449Z,14.2
2023-08-01T12:31:38.120Z,14.4
2023-08-01T12:34:39.088Z,14.3
2023-08-01T12:36:39.919Z,14.5
2023-08-01T12:39:41.623Z,14.5
2023-08-01T12:41:42.670Z,14.6
2023-08-01T12:44:43.293Z,14.6
2023-08-01T12:47:44.155Z,14.8
2023-08-01T12:49:44.829Z,14.8
2023-08-01T12:52:45.434Z,15.0
2023-08-01T12:54:46.027Z,15.5
2023-08-01T12:59:46.661Z,15.4
2023-08-01T13:02:47.306Z,15.5
2023-08-01T13:04:48.057Z,15.6
2023-08-01T13:07:48.653Z,15.6
2023-08-01T13:09:49.241Z,15.4
2023-08-01T13:12:49.820Z,15.7
2023-08-01T13:14:51.215Z,16.0
2023-08-01T13:17:15.730Z,15.8
2023-08-01T13:20:16.352Z,15.8
2023-08-01T13:23:16.959Z,16.1
2023-08-01T13:25:17.558Z,16.5
2023-08-01T13:28:18.182Z,16.5
2023-08-01T13:30:18.827Z,16.3
2023-08-01T13:33:19.862Z,16.6
2023-08-01T13:35:20.547Z,16.2
2023-08-01T13:40:21.159Z,16.4
2023-08-01T13:43:21.808Z,16.6
2023-08-01T13:45:22.421Z,16.8
2023-08-01T13:48:23.138Z,17.1
2023-08-01T13:50:24.128Z,17.4
2023-08-01T13:53:24.723Z,17.1
2023-08-01T13:55:25.334Z,16.8
2023-08-01T13:58:25.955Z,17.1
2023-08-01T14:01:26.618Z,17.0
2023-08-01T14:03:27.471Z,17.2
2023-08-01T14:06:28.444Z,17.2
2023-08-01T14:08:29.114Z,17.3
2023-08-01T14:11:29.750Z,17.0
2023-08-01T14:13:30.448Z,17.3
2023-08-01T14:16:31.073Z,17.6
2023-08-01T14:21:31.820Z,18.0
2023-08-01T14:23:32.440Z,18.0
2023-08-01T14:26:33.059Z,18.1
2023-08-01T14:28:33.694Z,18.2
2023-08-01T14:31:34.400Z,18.6
2023-08-01T14:34:35.143Z,18.9
2023-08-01T14:36:35.769Z,19.1
2023-08-01T14:39:36.341Z,19.2
2023-08-01T14:42:02.263Z,19.4
2023-08-01T14:44:06.324Z,19.7
2023-08-01T14:47:06.934Z,19.7
2023-08-01T14:49:07.520Z,20.1
2023-08-01T14:52:08.185Z,19.9
2023-08-01T14:54:08.751Z,20.1
2023-08-01T14:57:09.441Z,20.5
2023-08-01T15:02:11.650Z,20.6
2023-08-01T15:04:12.508Z,20.6
2023-08-01T15:07:13.229Z,21.0
2023-08-01T15:09:14.216Z,21.0
2023-08-01T15:12:14.838Z,21.0
2023-08-01T15:14:15.436Z,20.4
2023-08-01T15:17:16.067Z,20.0
2023-08-01T15:19:16.832Z,20.0
2023-08-01T15:22:17.435Z,19.8
2023-08-01T15:25:18.322Z,19.6
2023-08-01T15:27:18.936Z,20.0
2023-08-01T15:30:19.527Z,20.6
2023-08-01T15:32:20.136Z,20.8
2023-08-01T15:35:20.737Z,20.9
2023-08-01T15:37:21.392Z,21.1
2023-08-01T15:42:22.278Z,21.4
2023-08-01T15:45:22.901Z,21.1
2023-08-01T15:47:23.520Z,20.7
2023-08-01T15:50:24.270Z,20.4
2023-08-01T15:52:24.897Z,20.6
2023-08-01T15:55:25.485Z,20.6
2023-08-01T15:58:26.084Z,20.2
2023-08-01T16:00:26.665Z,20.0
2023-08-01T16:03:27.330Z,19.7
2023-08-01T16:05:28.467Z,19.7
2023-08-01T16:08:30.150Z,19.8
2023-08-01T16:10:30.924Z,19.9
2023-08-01T16:13:31.506Z,19.9
2023-08-01T16:15:32.086Z,19.9
2023-08-01T16:18:32.874Z,20.2
2023-08-01T16:23:33.803Z,20.7
2023-08-01T16:25:34.458Z,20.8
2023-08-01T16:28:35.363Z,20.8
2023-08-01T16:30:36.020Z,20.8
2023-08-01T16:33:36.607Z,20.8
2023-08-01T16:35:37.262Z,21.1
2023-08-01T16:38:38.054Z,20.7
2023-08-01T16:40:38.662Z,20.7
2023-08-01T16:43:39.268Z,20.8
2023-08-01T16:46:39.884Z,20.8
2023-08-01T16:48:40.721Z,20.8
2023-08-01T16:51:41.484Z,20.8
2023-08-01T16:53:42.268Z,20.8
2023-08-01T16:56:42.951Z,20.9
2023-08-01T16:58:43.729Z,21.0
2023-08-01T17:03:44.324Z,20.8
2023-08-01T17:06:45.154Z,20.9
2023-08-01T17:08:46.553Z,21.1
2023-08-01T17:11:47.139Z,20.8
2023-08-01T17:13:47.739Z,20.8
2023-08-01T17:16:48.334Z,20.9
2023-08-01T17:18:49.125Z,20.9
2023-08-01T17:21:49.709Z,20.7
2023-08-01T17:24:50.326Z,20.6
2023-08-01T17:26:50.963Z,20.6
2023-08-01T17:29:51.540Z,20.4
2023-08-01T17:31:52.178Z,20.2
2023-08-01T17:34:52.754Z,20.2
2023-08-01T17:36:53.322Z,20.3
2023-08-01T17:39:53.979Z,20.4
2023-08-01T17:44:54.619Z,20.2
2023-08-01T17:46:55.227Z,20.1
2023-08-01T17:49:55.977Z,19.8
2023-08-01T17:51:56.554Z,19.7
2023-08-01T17:54:57.209Z,19.6
2023-08-01T17:56:57.782Z,19.6
2023-08-01T17:59:58.403Z,19.4
2023-08-01T18:01:59.053Z,19.4
2023-08-01T18:04:59.794Z,19.3
2023-08-01T18:08:00.382Z,19.2
2023-08-01T18:10:00.998Z,19.2
2023-08-01T18:13:01.820Z,19.0
2023-08-01T18:15:02.417Z,18.8
2023-08-01T18:18:03.047Z,18.8
2023-08-01T18:20:03.735Z,18.6
2023-08-01T18:25:04.373Z,18.2
2023-08-01T18:28:05.037Z,18.0
2023-08-01T18:30:05.645Z,18.0
2023-08-01T18:33:06.300Z,18.0
2023-08-01T18:35:07.144Z,17.7
2023-08-01T18:38:07.733Z,17.6
2023-08-01T18:40:08.335Z,17.5
2023-08-01T18:43:08.976Z,17.2
2023-08-01T18:45:09.675Z,17.0
2023-08-01T18:48:10.250Z,16.9
2023-08-01T18:51:10.848Z,16.9
2023-08-01T18:53:11.460Z,16.6
2023-08-01T18:56:13.306Z,16.6
2023-08-01T18:58:14.462Z,16.4
2023-08-01T19:01:15.092Z,16.3
2023-08-01T19:06:16.079Z,16.2
2023-08-01T19:11:17.092Z,16.0
2023-08-01T19:13:17.682Z,16.0
2023-08-01T19:16:18.328Z,15.9
2023-08-01T19:18:19.038Z,15.8
2023-08-01T19:21:19.637Z,15.6
2023-08-01T19:24:20.272Z,15.4
2023-08-01T19:26:20.865Z,15.2
2023-08-01T19:28:21.464Z,15.0
2023-08-01T19:31:22.117Z,14.8
2023-08-01T19:34:22.887Z,14.7
2023-08-01T19:36:23.490Z,14.4
2023-08-01T19:39:24.079Z,14.4
2023-08-01T19:41:24.705Z,14.3
2023-08-01T19:46:25.440Z,14.1
2023-08-01T19:49:26.205Z,14.0
2023-08-01T19:51:26.817Z,14.0
2023-08-01T19:54:27.442Z,14.0
2023-08-01T19:56:28.103Z,14.2
2023-08-01T19:59:28.686Z,14.2
2023-08-01T20:01:29.286Z,14.2
2023-08-01T20:04:30.130Z,14.1
2023-08-01T20:07:31.465Z,14.0
2023-08-01T20:09:32.064Z,14.0
2023-08-01T20:12:32.672Z,14.0
2023-08-01T20:14:33.282Z,13.9
2023-08-01T20:17:33.931Z,13.9
2023-08-01T20:19:34.774Z,13.8
2023-08-01T20:22:35.374Z,13.6
2023-08-01T20:27:36.228Z,13.2
2023-08-01T20:29:36.805Z,13.0
2023-08-01T20:32:37.565Z,12.7
2023-08-01T20:34:38.310Z,12.6
2023-08-01T20:37:38.891Z,12.5
2023-08-01T20:39:39.474Z,12.3
2023-08-01T20:42:40.089Z,12.6
2023-08-01T20:45:40.701Z,12.8
2023-08-01T20:47:41.633Z,12.7
2023-08-01T20:50:42.362Z,12.7
2023-08-01T20:52:42.958Z,12.7
2023-08-01T20:55:43.558Z,12.6
2023-08-01T20:57:44.213Z,12.5
2023-08-01T21:00:44.930Z,12.4
2023-08-01T21:02:45.594Z,12.4
2023-08-01T21:07:46.346Z,12.2
2023-08-01T21:10:46.933Z,12.2
2023-08-01T21:12:47.513Z,12.1
2023-08-01T21:15:48.121Z,12.1
2023-08-01T21:17:48.857Z,12.0
2023-08-01T21:20:49.592Z,12.0
2023-08-01T21:22:50.202Z,12.0
2023-08-01T21:25:50.853Z,11.9
2023-08-01T21:27:51.538Z,11.8
2023-08-01T21:30:52.154Z,11.7
2023-08-01T21:32:53.003Z,11.6
2023-08-01T21:35:53.724Z,11.6
2023-08-01T21:38:54.638Z,11.3
2023-08-01T21:40:55.231Z,11.0
2023-08-01T21:43:55.846Z,10.9
2023-08-01T21:48:56.427Z,10.8
2023-08-01T21:50:57.067Z,11.0
2023-08-01T21:53:57.668Z,11.0
2023-08-01T21:58:58.310Z,11.1
2023-08-01T22:00:58.919Z,11.1
2023-08-01T22:03:59.647Z,11.1
2023-08-01T22:07:00.259Z,11.0
2023-08-01T22:09:00.846Z,10.8
2023-08-01T22:12:01.433Z,10.7
2023-08-01T22:14:02.051Z,10.6
2023-08-01T22:17:02.646Z,10.5
2023-08-01T22:19:03.285Z,10.4
2023-08-01T22:22:03.895Z,10.4
2023-08-01T22:24:06.515Z,10.3
2023-08-01T22:29:07.149Z,10.2
2023-08-01T22:32:07.725Z,10.2
2023-08-01T22:34:08.309Z,10.3
2023-08-01T22:37:08.898Z,10.2
2023-08-01T22:39:09.485Z,10.2
2023-08-01T22:42:10.283Z,10.4
2023-08-01T22:44:10.878Z,10.3
2023-08-01T22:47:11.450Z,10.3
2023-08-01T22:49:12.077Z,9.9
2023-08-01T22:52:12.661Z,9.8
2023-08-01T22:55:13.257Z,9.8
2023-08-01T22:57:13.830Z,9.8
2023-08-01T23:00:14.462Z,9.7
2023-08-01T23:02:15.072Z,9.6
2023-08-01T23:05:15.847Z,9.6
2023-08-01T23:10:16.687Z,9.7
2023-08-01T23:12:34.597Z,9.7
2023-08-01T23:14:35.242Z,9.7
2023-08-01T23:17:35.912Z,9.7
2023-08-01T23:20:36.981Z,9.7
2023-08-01T23:22:37.598Z,9.7
2023-08-01T23:25:38.210Z,9.8
2023-08-01T23:27:38.791Z,9.8
2023-08-01T23:30:39.410Z,9.7
2023-08-01T23:32:40.074Z,9.7
2023-08-01T23:35:41.317Z,9.8
2023-08-01T23:37:41.902Z,9.8
2023-08-01T23:40:42.505Z,9.8
2023-08-01T23:42:43.087Z,9.9
2023-08-01T23:45:43.699Z,10.0
2023-08-01T23:50:44.282Z,10.1
2023-08-01T23:53:44.856Z,10.2
2023-08-01T23:55:45.458Z,10.2
2023-08-01T23:58:46.035Z,10.3
